Time;durP1;ratioP1;P1;durP2;ratioP2;P2;SDS_P1;SDS_P2;PMS_P1;PMS_P2;Temp;Humidity;BMP_temperature;BMP_pressure;BME280_temperature;BME280_humidity;BME280_pressure;Samples;Min_cycle;Max_cycle;Signal;HPM_P1;HPM_P2
2022/03/29 00:00:17;;;;;;;9.73;6.30;;;;;;;;;;5008457;28;20184;-63
2022/03/29 00:02:44;;;;;;;11.73;5.93;;;;;;;;;;5005423;28;20189;-64
2022/03/29 00:05:11;;;;;;;8.63;5.90;;;;;;;;;;5008148;28;20208;-64
2022/03/29 00:07:37;;;;;;;7.27;5.57;;;;;;;;;;5005337;28;20197;-64
2022/03/29 00:10:06;;;;;;;7.67;5.50;;;;;;;;;;5000089;28;20216;-65
2022/03/29 00:12:36;;;;;;;6.03;4.90;;;;;;;;;;4996150;28;20213;-64
2022/03/29 00:15:05;;;;;;;6.23;4.90;;;;;;;;;;5007082;28;20220;-63
2022/03/29 00:21:00;;;;;;;9.00;5.00;;;;;;;;;;5006365;28;20208;-64
2022/03/29 00:23:27;;;;;;;7.07;4.80;;;;;;;;;;5003676;28;20791;-64
2022/03/29 00:25:53;;;;;;;8.00;4.70;;;;;;;;;;5013381;28;20196;-64
2022/03/29 00:28:20;;;;;;;8.43;4.87;;;;;;;;;;5006118;28;20193;-64
2022/03/29 00:30:46;;;;;;;9.60;4.40;;;;;;;;;;4992351;28;20545;-64
2022/03/29 00:33:13;;;;;;;6.27;4.40;;;;;;;;;;5007180;28;20223;-63
2022/03/29 00:35:39;;;;;;;7.67;4.60;;;;;;;;;;5007141;28;20209;-64
2022/03/29 00:38:06;;;;;;;8.00;4.97;;;;;;;;;;5007409;28;20204;-65
2022/03/29 00:40:33;;;;;;;6.43;4.83;;;;;;;;;;5004732;28;20209;-63
2022/03/29 00:42:59;;;;;;;6.97;4.60;;;;;;;;;;5006226;28;20565;-63
2022/03/29 00:45:26;;;;;;;7.20;4.60;;;;;;;;;;5008014;28;20193;-63
2022/03/29 00:47:52;;;;;;;7.60;4.40;;;;;;;;;;5009465;28;20290;-63
2022/03/29 00:50:19;;;;;;;8.53;4.70;;;;;;;;;;5011851;28;20542;-65
2022/03/29 00:52:47;;;;;;;7.27;4.30;;;;;;;;;;5010515;28;20219;-63
2022/03/29 00:55:15;;;;;;;5.73;4.07;;;;;;;;;;5012806;28;20285;-64
2022/03/29 00:57:45;;;;;;;4.87;3.97;;;;;;;;;;5011335;28;20367;-63
2022/03/29 01:00:13;;;;;;;8.63;4.40;;;;;;;;;;5011545;28;20197;-64
2022/03/29 01:02:40;;;;;;;8.00;4.30;;;;;;;;;;5010188;28;20266;-63
2022/03/29 01:05:07;;;;;;;8.60;4.50;;;;;;;;;;5010054;28;20200;-64
2022/03/29 01:07:35;;;;;;;7.37;4.10;;;;;;;;;;5010850;28;20203;-63
2022/03/29 01:10:02;;;;;;;7.43;4.20;;;;;;;;;;5008827;28;20192;-65
2022/03/29 01:12:33;;;;;;;5.80;3.90;;;;;;;;;;5009919;28;20781;-63
2022/03/29 01:15:05;;;;;;;11.90;4.30;;;;;;;;;;5001152;28;20247;-64
2022/03/29 01:17:38;;;;;;;13.00;5.17;;;;;;;;;;4993018;28;20193;-64
2022/03/29 01:20:10;;;;;;;6.13;3.87;;;;;;;;;;4982589;28;20216;-63
2022/03/29 01:22:41;;;;;;;7.97;4.57;;;;;;;;;;5005354;28;20243;-63
2022/03/29 01:25:10;;;;;;;6.70;4.20;;;;;;;;;;4985383;28;20286;-65
2022/03/29 01:27:38;;;;;;;7.23;4.50;;;;;;;;;;5008676;28;20623;-63
2022/03/29 01:30:05;;;;;;;11.00;5.10;;;;;;;;;;5010909;28;20188;-64
2022/03/29 01:32:35;;;;;;;9.33;4.33;;;;;;;;;;5009283;28;20681;-64
2022/03/29 01:35:03;;;;;;;9.93;4.63;;;;;;;;;;5005347;28;20204;-64
2022/03/29 01:37:30;;;;;;;8.00;4.70;;;;;;;;;;5005522;28;20224;-64
2022/03/29 01:39:57;;;;;;;6.07;4.30;;;;;;;;;;5006183;28;20205;-64
2022/03/29 01:42:23;;;;;;;6.73;5.20;;;;;;;;;;4988186;28;20282;-63
2022/03/29 01:44:50;;;;;;;6.60;4.50;;;;;;;;;;5025047;28;20660;-64
2022/03/29 01:47:21;;;;;;;6.70;5.10;;;;;;;;;;5008811;28;20220;-63
2022/03/29 01:49:49;;;;;;;8.37;4.70;;;;;;;;;;5010533;28;20553;-63
2022/03/29 01:52:15;;;;;;;8.77;4.60;;;;;;;;;;5008448;28;20220;-63
2022/03/29 01:54:43;;;;;;;7.50;5.10;;;;;;;;;;5009161;28;20562;-63
2022/03/29 01:57:10;;;;;;;7.67;4.87;;;;;;;;;;4991608;28;20197;-63
2022/03/29 02:02:24;;;;;;;8.47;5.20;;;;;;;;;;5004650;28;20177;-65
2022/03/29 02:04:51;;;;;;;10.23;5.73;;;;;;;;;;5007352;28;20185;-64
2022/03/29 02:07:18;;;;;;;7.47;5.30;;;;;;;;;;5007902;28;20189;-64
2022/03/29 02:09:45;;;;;;;8.90;5.60;;;;;;;;;;5000816;28;20306;-63
2022/03/29 02:12:12;;;;;;;9.73;5.80;;;;;;;;;;5009409;28;20278;-65
2022/03/29 02:14:39;;;;;;;9.40;5.37;;;;;;;;;;5006463;28;20243;-63
2022/03/29 02:17:06;;;;;;;7.77;5.40;;;;;;;;;;5006049;28;20762;-63
2022/03/29 02:19:32;;;;;;;7.43;5.33;;;;;;;;;;5010444;28;20296;-63
2022/03/29 02:21:59;;;;;;;9.67;5.43;;;;;;;;;;5010503;28;20184;-64
2022/03/29 02:24:26;;;;;;;11.33;5.10;;;;;;;;;;5010259;28;20189;-63
2022/03/29 02:26:52;;;;;;;8.83;6.13;;;;;;;;;;5009559;28;20192;-65
2022/03/29 02:29:19;;;;;;;10.10;6.37;;;;;;;;;;5007247;28;20642;-64
2022/03/29 02:31:45;;;;;;;9.03;5.57;;;;;;;;;;5008246;28;20311;-63
2022/03/29 02:34:12;;;;;;;7.97;5.60;;;;;;;;;;5007839;28;20192;-63
2022/03/29 02:36:39;;;;;;;8.40;6.17;;;;;;;;;;5009277;28;20220;-64
2022/03/29 02:39:06;;;;;;;10.60;5.90;;;;;;;;;;4995914;28;20622;-64
2022/03/29 02:41:32;;;;;;;10.73;5.40;;;;;;;;;;5003899;28;20197;-63
2022/03/29 02:43:59;;;;;;;8.63;5.40;;;;;;;;;;5008531;28;20212;-65
2022/03/29 02:46:25;;;;;;;12.10;5.63;;;;;;;;;;5008653;28;20572;-63
2022/03/29 02:48:52;;;;;;;7.90;5.60;;;;;;;;;;5009017;28;20204;-64
2022/03/29 02:51:18;;;;;;;9.50;6.20;;;;;;;;;;5008133;28;20291;-63
2022/03/29 02:53:45;;;;;;;9.80;5.97;;;;;;;;;;5009663;28;20184;-64
2022/03/29 02:56:11;;;;;;;7.30;5.17;;;;;;;;;;5007436;28;20193;-65
2022/03/29 02:58:38;;;;;;;8.77;5.00;;;;;;;;;;5008635;28;20196;-63
2022/03/29 03:01:04;;;;;;;11.83;5.30;;;;;;;;;;5008247;28;20228;-63
2022/03/29 03:03:31;;;;;;;11.00;5.30;;;;;;;;;;5007849;28;20212;-63
2022/03/29 03:05:58;;;;;;;9.40;5.10;;;;;;;;;;5007810;28;20196;-65
2022/03/29 03:08:25;;;;;;;9.87;5.20;;;;;;;;;;5009057;28;20195;-63
2022/03/29 03:10:51;;;;;;;9.07;4.87;;;;;;;;;;5007279;28;20193;-63
2022/03/29 03:13:18;;;;;;;8.17;5.03;;;;;;;;;;4999891;28;20217;-64
2022/03/29 03:15:44;;;;;;;7.50;4.17;;;;;;;;;;5009348;28;20189;-64
2022/03/29 03:18:12;;;;;;;6.53;4.10;;;;;;;;;;5007983;28;20193;-64
2022/03/29 03:20:39;;;;;;;12.97;4.07;;;;;;;;;;5008277;28;20196;-63
2022/03/29 03:23:05;;;;;;;9.43;3.93;;;;;;;;;;5001353;28;20185;-63
2022/03/29 03:25:32;;;;;;;8.60;4.00;;;;;;;;;;5009075;28;20188;-63
2022/03/29 03:27:58;;;;;;;5.23;3.83;;;;;;;;;;5008212;28;20255;-64
2022/03/29 03:30:25;;;;;;;4.57;3.50;;;;;;;;;;5003494;28;20329;-63
2022/03/29 03:32:54;;;;;;;7.43;4.13;;;;;;;;;;5005860;28;20213;-64
2022/03/29 03:35:21;;;;;;;8.63;4.10;;;;;;;;;;5008642;28;20727;-63
2022/03/29 03:37:48;;;;;;;5.90;4.10;;;;;;;;;;5006627;28;20243;-64
2022/03/29 03:40:14;;;;;;;6.97;3.87;;;;;;;;;;5006923;28;20577;-65
2022/03/29 03:42:41;;;;;;;6.57;3.97;;;;;;;;;;5007322;28;20193;-65
2022/03/29 03:45:09;;;;;;;5.70;4.00;;;;;;;;;;5008183;28;20200;-63
2022/03/29 03:47:37;;;;;;;9.70;4.30;;;;;;;;;;5007789;28;20189;-63
2022/03/29 03:50:05;;;;;;;8.33;4.23;;;;;;;;;;5023087;28;20202;-64
2022/03/29 03:52:31;;;;;;;7.07;4.30;;;;;;;;;;5007074;28;20270;-65
2022/03/29 03:54:58;;;;;;;6.33;3.83;;;;;;;;;;5006476;28;20244;-63
2022/03/29 03:57:25;;;;;;;6.13;4.30;;;;;;;;;;5007745;28;20275;-63
2022/03/29 03:59:55;;;;;;;7.53;4.00;;;;;;;;;;5006247;28;20637;-63
2022/03/29 04:02:22;;;;;;;9.17;3.83;;;;;;;;;;5007418;28;20181;-64
2022/03/29 04:04:48;;;;;;;8.83;3.70;;;;;;;;;;5007226;28;20239;-63
2022/03/29 04:07:15;;;;;;;6.27;3.40;;;;;;;;;;5008031;28;20185;-65
2022/03/29 04:09:42;;;;;;;7.30;4.10;;;;;;;;;;5008673;28;20554;-65
2022/03/29 04:12:09;;;;;;;5.97;3.67;;;;;;;;;;5008628;28;20201;-64
2022/03/29 04:14:36;;;;;;;11.30;3.80;;;;;;;;;;5007296;28;20219;-64
2022/03/29 04:17:04;;;;;;;8.23;3.83;;;;;;;;;;5007159;28;20638;-64
2022/03/29 04:19:31;;;;;;;7.10;3.83;;;;;;;;;;5006218;28;20207;-64
2022/03/29 04:21:57;;;;;;;5.87;3.83;;;;;;;;;;5008324;28;20208;-64
2022/03/29 04:24:24;;;;;;;5.83;3.70;;;;;;;;;;5007039;28;20243;-64
2022/03/29 04:26:51;;;;;;;5.80;4.10;;;;;;;;;;5007666;28;20266;-64
2022/03/29 04:29:19;;;;;;;5.50;3.10;;;;;;;;;;5007595;28;20189;-63
2022/03/29 04:31:45;;;;;;;9.80;3.50;;;;;;;;;;5006525;28;20834;-64
2022/03/29 04:34:12;;;;;;;5.70;3.30;;;;;;;;;;5006737;28;20704;-64
2022/03/29 04:36:39;;;;;;;6.20;2.60;;;;;;;;;;5005896;28;20208;-64
2022/03/29 04:39:05;;;;;;;4.63;2.70;;;;;;;;;;4988369;28;20218;-65
2022/03/29 04:41:32;;;;;;;5.33;2.93;;;;;;;;;;5022233;28;20195;-64
2022/03/29 04:43:58;;;;;;;6.27;3.30;;;;;;;;;;5007491;28;20193;-63
2022/03/29 04:46:25;;;;;;;5.83;3.10;;;;;;;;;;5007773;28;20283;-64
2022/03/29 04:48:52;;;;;;;6.27;2.60;;;;;;;;;;5002945;28;20204;-63
2022/03/29 04:51:19;;;;;;;6.50;2.63;;;;;;;;;;5000203;28;20209;-64
2022/03/29 04:53:45;;;;;;;11.70;2.93;;;;;;;;;;5020370;28;20192;-65
2022/03/29 04:56:12;;;;;;;4.40;2.60;;;;;;;;;;5006470;28;20192;-64
2022/03/29 04:58:39;;;;;;;6.17;2.80;;;;;;;;;;5007068;28;20246;-64
2022/03/29 05:01:05;;;;;;;4.30;2.17;;;;;;;;;;5001623;28;20205;-63
2022/03/29 05:03:33;;;;;;;5.13;2.20;;;;;;;;;;5001053;28;20193;-64
2022/03/29 05:05:59;;;;;;;5.67;2.27;;;;;;;;;;5004632;28;20204;-65
2022/03/29 05:08:26;;;;;;;7.90;2.50;;;;;;;;;;4990140;28;20246;-65
2022/03/29 05:10:53;;;;;;;3.43;2.07;;;;;;;;;;5005362;28;20200;-64
2022/03/29 05:13:20;;;;;;;7.23;2.40;;;;;;;;;;5004178;28;20282;-63
2022/03/29 05:15:48;;;;;;;4.27;2.67;;;;;;;;;;5012160;28;20196;-63
2022/03/29 05:18:14;;;;;;;3.50;2.23;;;;;;;;;;5004518;28;20251;-64
2022/03/29 05:20:41;;;;;;;3.20;2.47;;;;;;;;;;5002098;28;20229;-63
2022/03/29 05:23:08;;;;;;;5.50;2.30;;;;;;;;;;5005801;28;20260;-63
2022/03/29 05:25:35;;;;;;;3.77;2.30;;;;;;;;;;5007458;28;20200;-64
2022/03/29 05:28:02;;;;;;;4.63;2.80;;;;;;;;;;5008925;28;20216;-65
2022/03/29 05:30:29;;;;;;;5.33;2.10;;;;;;;;;;5005973;28;20288;-63
2022/03/29 05:33:00;;;;;;;4.83;2.50;;;;;;;;;;5004211;28;20530;-64
2022/03/29 05:35:32;;;;;;;4.43;2.50;;;;;;;;;;5010303;28;20197;-63
2022/03/29 05:38:01;;;;;;;5.47;2.80;;;;;;;;;;5005701;28;20193;-66
2022/03/29 05:40:29;;;;;;;3.90;2.13;;;;;;;;;;5010626;28;20205;-65
2022/03/29 05:42:56;;;;;;;5.17;2.30;;;;;;;;;;4990708;28;20197;-66
2022/03/29 05:45:23;;;;;;;5.27;2.73;;;;;;;;;;5006581;28;20197;-64
2022/03/29 05:50:35;;;;;;;4.53;2.60;;;;;;;;;;5010807;28;20629;-64
2022/03/29 05:53:02;;;;;;;4.57;2.60;;;;;;;;;;5010888;28;20682;-65
2022/03/29 05:55:29;;;;;;;8.63;3.10;;;;;;;;;;5010316;28;20184;-64
2022/03/29 05:57:56;;;;;;;5.57;2.40;;;;;;;;;;5010189;28;20251;-64
2022/03/29 06:00:26;;;;;;;3.87;1.80;;;;;;;;;;5008425;28;20197;-66
2022/03/29 06:02:53;;;;;;;4.50;2.00;;;;;;;;;;5009179;28;20538;-65
2022/03/29 06:05:20;;;;;;;4.57;2.03;;;;;;;;;;5010380;28;20196;-66
2022/03/29 06:07:47;;;;;;;6.00;2.10;;;;;;;;;;5004194;28;20197;-64
2022/03/29 06:10:14;;;;;;;5.63;2.47;;;;;;;;;;5009474;28;20207;-64
2022/03/29 06:12:45;;;;;;;3.67;1.73;;;;;;;;;;5020223;28;20216;-64
2022/03/29 06:15:13;;;;;;;5.07;2.10;;;;;;;;;;5006032;28;20228;-64
2022/03/29 06:17:40;;;;;;;4.97;2.00;;;;;;;;;;5000823;28;20204;-64
2022/03/29 06:20:09;;;;;;;5.13;2.30;;;;;;;;;;5008981;28;20204;-65
2022/03/29 06:22:42;;;;;;;4.00;1.90;;;;;;;;;;4991385;28;20196;-64
2022/03/29 06:25:09;;;;;;;5.20;2.20;;;;;;;;;;5020027;28;20197;-65
2022/03/29 06:27:36;;;;;;;4.37;2.70;;;;;;;;;;5009082;28;20196;-65
2022/03/29 06:30:07;;;;;;;14.77;2.40;;;;;;;;;;5024556;28;20189;-64
2022/03/29 06:32:34;;;;;;;5.63;2.27;;;;;;;;;;5008230;28;20550;-63
2022/03/29 06:35:01;;;;;;;8.60;2.93;;;;;;;;;;5007783;28;20189;-64
2022/03/29 06:37:27;;;;;;;6.63;2.53;;;;;;;;;;5008685;28;20299;-65
2022/03/29 06:39:54;;;;;;;6.73;2.33;;;;;;;;;;5022783;28;20211;-64
2022/03/29 06:42:20;;;;;;;6.80;2.30;;;;;;;;;;5006379;28;20204;-63
2022/03/29 06:44:47;;;;;;;4.30;2.17;;;;;;;;;;4988127;28;20211;-63
2022/03/29 06:47:16;;;;;;;6.50;2.40;;;;;;;;;;5002491;28;20614;-65
2022/03/29 06:49:43;;;;;;;6.27;2.33;;;;;;;;;;5000202;28;20558;-64
2022/03/29 06:52:10;;;;;;;4.27;1.90;;;;;;;;;;5003613;28;20279;-65
2022/03/29 06:54:37;;;;;;;6.63;2.17;;;;;;;;;;4991319;28;20193;-63
2022/03/29 06:57:05;;;;;;;3.67;2.30;;;;;;;;;;5005981;28;20197;-64
2022/03/29 06:59:32;;;;;;;4.83;2.27;;;;;;;;;;5002070;28;20255;-65
2022/03/29 07:01:59;;;;;;;9.47;2.87;;;;;;;;;;5006402;28;20200;-64
2022/03/29 07:04:26;;;;;;;9.60;2.20;;;;;;;;;;5006678;28;20228;-63
2022/03/29 07:06:52;;;;;;;7.77;2.23;;;;;;;;;;4982057;28;20196;-66
2022/03/29 07:12:05;;;;;;;7.70;2.50;;;;;;;;;;5026291;28;20217;-64
2022/03/29 07:14:31;;;;;;;8.17;3.03;;;;;;;;;;5022245;28;20185;-65
2022/03/29 07:16:59;;;;;;;4.93;2.47;;;;;;;;;;5006784;28;20283;-64
2022/03/29 07:19:27;;;;;;;8.50;2.63;;;;;;;;;;5008219;28;20593;-64
2022/03/29 07:21:54;;;;;;;5.97;2.20;;;;;;;;;;5002105;28;20596;-65
2022/03/29 07:24:21;;;;;;;4.40;2.43;;;;;;;;;;5021240;28;20265;-64
2022/03/29 07:26:48;;;;;;;5.30;2.20;;;;;;;;;;5006781;28;20203;-65
2022/03/29 07:29:14;;;;;;;13.07;2.70;;;;;;;;;;5004969;28;20214;-63
2022/03/29 07:31:42;;;;;;;6.30;2.70;;;;;;;;;;5003801;28;20213;-64
2022/03/29 07:34:09;;;;;;;6.57;2.63;;;;;;;;;;5003993;28;20657;-64
2022/03/29 07:36:35;;;;;;;6.03;2.53;;;;;;;;;;5003465;28;20215;-63
2022/03/29 07:39:02;;;;;;;7.03;2.80;;;;;;;;;;5007142;28;20197;-64
2022/03/29 07:41:29;;;;;;;8.40;2.77;;;;;;;;;;5004558;28;20211;-63
2022/03/29 07:43:55;;;;;;;5.97;3.10;;;;;;;;;;4986879;28;20299;-64
2022/03/29 07:46:22;;;;;;;8.97;3.37;;;;;;;;;;5001823;28;20291;-66
2022/03/29 07:48:49;;;;;;;9.40;3.57;;;;;;;;;;5005822;28;20196;-64
2022/03/29 07:51:17;;;;;;;11.53;3.20;;;;;;;;;;5004081;28;20849;-64
2022/03/29 07:53:44;;;;;;;10.50;3.70;;;;;;;;;;5004436;28;20193;-63
2022/03/29 07:56:11;;;;;;;10.50;3.10;;;;;;;;;;5003422;28;20219;-63
2022/03/29 07:58:38;;;;;;;10.57;2.93;;;;;;;;;;5002001;28;20217;-63
2022/03/29 08:01:05;;;;;;;12.37;2.90;;;;;;;;;;5006114;28;20653;-65
2022/03/29 08:03:33;;;;;;;5.67;2.83;;;;;;;;;;5004966;28;20223;-63
2022/03/29 08:06:02;;;;;;;5.83;3.07;;;;;;;;;;5005196;28;20193;-64
2022/03/29 08:08:31;;;;;;;4.17;2.57;;;;;;;;;;5006243;28;20196;-64
2022/03/29 08:10:58;;;;;;;7.53;2.70;;;;;;;;;;5019493;28;20201;-64
2022/03/29 08:13:25;;;;;;;7.37;3.60;;;;;;;;;;5003963;28;20300;-66
2022/03/29 08:15:53;;;;;;;4.43;2.57;;;;;;;;;;5011700;28;20197;-64
2022/03/29 08:18:20;;;;;;;6.53;2.70;;;;;;;;;;5004647;28;20208;-64
2022/03/29 08:20:48;;;;;;;6.30;2.60;;;;;;;;;;5020546;28;20193;-64
2022/03/29 08:23:17;;;;;;;9.20;3.00;;;;;;;;;;5002828;28;20184;-66
2022/03/29 08:25:44;;;;;;;9.77;3.17;;;;;;;;;;5005605;28;20212;-65
2022/03/29 08:28:12;;;;;;;7.10;2.87;;;;;;;;;;5006760;28;20262;-64
2022/03/29 08:30:39;;;;;;;7.10;2.83;;;;;;;;;;5006052;28;20196;-66
2022/03/29 08:33:06;;;;;;;8.27;3.00;;;;;;;;;;5021150;28;20244;-65
2022/03/29 08:35:34;;;;;;;7.87;3.00;;;;;;;;;;5005934;28;20216;-64
2022/03/29 08:38:01;;;;;;;11.20;3.50;;;;;;;;;;5002798;28;20193;-64
2022/03/29 08:40:28;;;;;;;8.27;3.20;;;;;;;;;;5004433;28;20198;-64
2022/03/29 08:42:58;;;;;;;8.20;3.93;;;;;;;;;;5005174;28;20193;-64
2022/03/29 08:45:28;;;;;;;9.37;4.10;;;;;;;;;;5003610;28;20196;-64
2022/03/29 08:47:56;;;;;;;6.27;3.40;;;;;;;;;;5020923;28;20224;-66
2022/03/29 08:50:35;;;;;;;8.50;3.87;;;;;;;;;;5007735;28;20219;-64
2022/03/29 08:53:03;;;;;;;6.73;3.40;;;;;;;;;;5005904;28;20209;-64
2022/03/29 08:55:31;;;;;;;9.37;3.50;;;;;;;;;;5001331;28;20287;-64
2022/03/29 08:57:57;;;;;;;6.87;3.40;;;;;;;;;;5001017;28;20328;-64
2022/03/29 09:00:24;;;;;;;7.80;3.50;;;;;;;;;;5003249;28;20203;-65
2022/03/29 09:02:51;;;;;;;5.50;3.07;;;;;;;;;;5002111;28;20235;-65
2022/03/29 09:05:23;;;;;;;6.40;3.20;;;;;;;;;;5003519;28;20215;-64
2022/03/29 09:07:54;;;;;;;8.80;4.27;;;;;;;;;;5002346;28;20707;-65
2022/03/29 09:10:23;;;;;;;5.83;3.20;;;;;;;;;;5007098;28;20197;-65
2022/03/29 09:12:50;;;;;;;6.23;2.50;;;;;;;;;;5003974;28;20232;-65
2022/03/29 09:15:16;;;;;;;5.73;2.90;;;;;;;;;;5008749;28;20189;-64
2022/03/29 09:17:45;;;;;;;5.67;3.13;;;;;;;;;;5004578;28;20192;-64
2022/03/29 09:20:15;;;;;;;8.20;3.53;;;;;;;;;;5008419;28;20215;-64
2022/03/29 09:22:43;;;;;;;5.33;3.33;;;;;;;;;;5024606;28;20185;-65
2022/03/29 09:25:22;;;;;;;12.17;4.67;;;;;;;;;;5006470;28;20209;-64
2022/03/29 09:27:57;;;;;;;6.17;3.40;;;;;;;;;;5010195;28;20192;-64
2022/03/29 09:30:26;;;;;;;6.90;3.27;;;;;;;;;;5011040;28;20337;-64
2022/03/29 09:33:00;;;;;;;5.80;3.10;;;;;;;;;;5009448;28;20256;-64
2022/03/29 09:35:28;;;;;;;6.67;3.17;;;;;;;;;;5004672;28;20219;-63
2022/03/29 09:37:55;;;;;;;7.60;2.93;;;;;;;;;;5007639;28;20511;-64
2022/03/29 09:40:31;;;;;;;7.50;3.27;;;;;;;;;;5002931;28;20619;-64
2022/03/29 09:43:06;;;;;;;11.27;5.00;;;;;;;;;;5005994;28;20185;-64
2022/03/29 09:45:42;;;;;;;9.80;4.90;;;;;;;;;;5008139;28;20226;-65
2022/03/29 09:48:28;;;;;;;7.90;4.90;;;;;;;;;;5008618;28;20204;-65
2022/03/29 09:50:58;;;;;;;9.30;4.33;;;;;;;;;;5009763;28;20200;-65
2022/03/29 09:53:51;;;;;;;8.90;3.90;;;;;;;;;;5002402;28;20279;-65
2022/03/29 09:56:24;;;;;;;6.63;3.20;;;;;;;;;;5007904;28;20233;-64
2022/03/29 09:59:08;;;;;;;9.87;3.27;;;;;;;;;;5020194;28;20200;-66
2022/03/29 10:01:57;;;;;;;9.23;4.20;;;;;;;;;;5005982;28;20184;-66
2022/03/29 10:04:29;;;;;;;7.53;3.70;;;;;;;;;;5020903;28;20216;-64
2022/03/29 10:06:59;;;;;;;11.20;3.87;;;;;;;;;;5004431;28;20200;-64
2022/03/29 10:09:33;;;;;;;8.03;4.40;;;;;;;;;;5004132;28;20188;-65
2022/03/29 10:12:05;;;;;;;7.03;4.17;;;;;;;;;;5009262;28;20213;-65
2022/03/29 10:14:39;;;;;;;4.33;3.17;;;;;;;;;;5003462;28;20196;-66
2022/03/29 10:17:07;;;;;;;6.93;3.97;;;;;;;;;;5024359;28;20192;-67
2022/03/29 10:19:36;;;;;;;7.47;3.00;;;;;;;;;;5006143;28;20201;-65
2022/03/29 10:22:04;;;;;;;5.67;3.23;;;;;;;;;;5004739;28;20206;-65
2022/03/29 10:24:32;;;;;;;5.87;3.60;;;;;;;;;;5003261;28;20649;-66
2022/03/29 10:27:00;;;;;;;7.20;3.73;;;;;;;;;;5006058;28;20193;-64
2022/03/29 10:29:35;;;;;;;10.80;4.80;;;;;;;;;;5008328;28;20196;-65
2022/03/29 10:32:06;;;;;;;7.77;4.10;;;;;;;;;;5004460;28;20201;-64
2022/03/29 10:34:40;;;;;;;8.13;4.13;;;;;;;;;;5004179;28;20197;-65
2022/03/29 10:37:10;;;;;;;8.20;4.03;;;;;;;;;;5013523;28;20299;-65
2022/03/29 10:40:03;;;;;;;5.10;3.37;;;;;;;;;;5002805;28;20594;-65
2022/03/29 10:42:41;;;;;;;9.33;3.40;;;;;;;;;;5005727;28;20185;-66
2022/03/29 10:45:16;;;;;;;6.60;3.13;;;;;;;;;;5019717;28;20246;-64
2022/03/29 10:47:45;;;;;;;6.20;3.87;;;;;;;;;;5005662;28;20203;-65
2022/03/29 10:50:14;;;;;;;8.87;3.93;;;;;;;;;;5020135;28;20639;-65
2022/03/29 10:52:49;;;;;;;5.33;3.80;;;;;;;;;;5007274;28;20208;-64
2022/03/29 10:55:27;;;;;;;11.63;3.77;;;;;;;;;;5002401;28;20196;-64
2022/03/29 10:58:12;;;;;;;9.07;3.50;;;;;;;;;;5007853;28;20632;-63
2022/03/29 11:00:48;;;;;;;7.20;3.70;;;;;;;;;;5003100;28;20189;-64
2022/03/29 11:03:22;;;;;;;4.77;2.50;;;;;;;;;;5006842;28;20247;-65
2022/03/29 11:06:10;;;;;;;12.87;3.10;;;;;;;;;;4989021;28;20217;-64
2022/03/29 11:08:42;;;;;;;10.07;2.57;;;;;;;;;;4997861;28;20424;-63
2022/03/29 11:11:29;;;;;;;10.23;3.10;;;;;;;;;;5003262;28;20238;-65
2022/03/29 11:14:16;;;;;;;10.50;3.10;;;;;;;;;;5003272;28;20238;-64
2022/03/29 11:16:43;;;;;;;10.87;3.23;;;;;;;;;;5003804;28;20192;-65
2022/03/29 11:19:38;;;;;;;9.93;3.20;;;;;;;;;;5007689;28;20180;-64
2022/03/29 11:22:36;;;;;;;8.93;3.37;;;;;;;;;;4999920;28;20272;-64
2022/03/29 11:25:14;;;;;;;12.37;3.67;;;;;;;;;;4990874;28;20208;-65
2022/03/29 11:27:41;;;;;;;7.50;3.20;;;;;;;;;;4990201;28;20275;-65
2022/03/29 11:30:10;;;;;;;8.27;3.57;;;;;;;;;;5006833;28;20906;-64
2022/03/29 11:32:42;;;;;;;9.50;3.40;;;;;;;;;;5006966;28;20207;-65
2022/03/29 11:35:11;;;;;;;7.50;3.80;;;;;;;;;;5011841;28;20572;-67
2022/03/29 11:37:41;;;;;;;6.70;3.87;;;;;;;;;;5003570;28;20193;-64
2022/03/29 11:40:11;;;;;;;9.47;3.97;;;;;;;;;;5000535;28;20193;-66
2022/03/29 11:42:44;;;;;;;8.77;3.27;;;;;;;;;;5013251;28;20192;-64
2022/03/29 11:45:13;;;;;;;11.03;3.60;;;;;;;;;;4999603;28;20177;-65
2022/03/29 11:47:40;;;;;;;5.03;3.30;;;;;;;;;;4983498;28;20185;-64
2022/03/29 11:50:07;;;;;;;6.13;3.30;;;;;;;;;;5005233;28;20197;-64
2022/03/29 11:52:35;;;;;;;10.13;3.40;;;;;;;;;;5004568;28;20231;-65
2022/03/29 11:55:14;;;;;;;8.93;3.13;;;;;;;;;;5005613;28;20630;-66
2022/03/29 11:57:40;;;;;;;6.20;2.80;;;;;;;;;;5005829;28;20297;-64
2022/03/29 12:00:24;;;;;;;7.90;3.00;;;;;;;;;;4995101;28;20719;-64
2022/03/29 12:02:52;;;;;;;7.17;2.63;;;;;;;;;;5019894;28;20287;-65
2022/03/29 12:05:27;;;;;;;12.03;2.90;;;;;;;;;;5004603;28;20669;-65
2022/03/29 12:08:02;;;;;;;10.20;2.50;;;;;;;;;;4999933;28;20196;-66
2022/03/29 12:10:36;;;;;;;10.03;3.13;;;;;;;;;;5005943;28;20258;-64
2022/03/29 12:13:03;;;;;;;13.83;3.20;;;;;;;;;;5020600;28;20294;-66
2022/03/29 12:15:31;;;;;;;13.97;3.33;;;;;;;;;;4998945;28;20274;-66
2022/03/29 12:20:47;;;;;;;14.23;2.93;;;;;;;;;;5002074;28;20196;-64
2022/03/29 12:23:22;;;;;;;13.97;3.10;;;;;;;;;;5004440;28;20192;-66
2022/03/29 12:25:49;;;;;;;14.13;2.87;;;;;;;;;;4988534;28;20200;-65
2022/03/29 12:28:17;;;;;;;8.80;2.80;;;;;;;;;;4997565;28;20195;-65
2022/03/29 12:30:44;;;;;;;9.90;3.30;;;;;;;;;;5019105;28;20200;-65
2022/03/29 12:33:10;;;;;;;18.27;3.17;;;;;;;;;;5007602;28;20210;-64
2022/03/29 12:35:37;;;;;;;16.10;3.47;;;;;;;;;;5003084;28;20208;-65
2022/03/29 12:38:11;;;;;;;13.63;3.20;;;;;;;;;;5016061;28;20197;-65
2022/03/29 12:40:39;;;;;;;11.70;3.00;;;;;;;;;;5004129;28;20617;-64
2022/03/29 12:43:08;;;;;;;10.63;2.77;;;;;;;;;;5004898;28;20204;-66
2022/03/29 12:45:40;;;;;;;8.47;2.90;;;;;;;;;;5025040;28;20188;-65
2022/03/29 12:48:13;;;;;;;10.60;3.10;;;;;;;;;;5024564;28;20193;-64
2022/03/29 12:50:40;;;;;;;13.17;3.23;;;;;;;;;;5002664;28;20204;-65
2022/03/29 12:53:08;;;;;;;18.07;3.70;;;;;;;;;;5003226;28;20522;-66
2022/03/29 12:55:35;;;;;;;16.93;3.30;;;;;;;;;;5002769;28;20204;-64
2022/03/29 12:58:06;;;;;;;14.00;3.03;;;;;;;;;;5021892;28;20185;-64
2022/03/29 13:00:41;;;;;;;16.37;2.83;;;;;;;;;;5008939;28;20208;-65
2022/03/29 13:03:09;;;;;;;10.40;2.80;;;;;;;;;;5007083;28;20180;-65
2022/03/29 13:05:36;;;;;;;12.03;3.00;;;;;;;;;;5008156;28;20363;-66
2022/03/29 13:08:04;;;;;;;15.40;3.20;;;;;;;;;;5010642;28;20227;-64
2022/03/29 13:10:42;;;;;;;22.07;3.87;;;;;;;;;;5009152;28;20196;-64
2022/03/29 13:13:25;;;;;;;13.03;2.87;;;;;;;;;;5009436;28;20213;-64
2022/03/29 13:16:05;;;;;;;11.60;3.10;;;;;;;;;;5009697;28;20204;-64
2022/03/29 13:18:50;;;;;;;11.93;2.80;;;;;;;;;;5007591;28;20264;-64
2022/03/29 13:21:23;;;;;;;14.53;3.43;;;;;;;;;;5009259;28;20270;-64
2022/03/29 13:23:55;;;;;;;17.73;3.07;;;;;;;;;;5003526;28;20193;-64
2022/03/29 13:26:27;;;;;;;12.13;3.23;;;;;;;;;;5008624;28;20196;-64
2022/03/29 13:28:55;;;;;;;9.63;3.03;;;;;;;;;;5010688;28;20196;-64
2022/03/29 13:31:25;;;;;;;24.65;3.50;;;;;;;;;;5008755;28;20223;-64
2022/03/29 13:33:53;;;;;;;12.43;2.53;;;;;;;;;;5005752;28;20196;-64
2022/03/29 13:36:22;;;;;;;16.73;2.93;;;;;;;;;;5008258;28;20263;-64
2022/03/29 13:38:53;;;;;;;18.07;3.40;;;;;;;;;;5004750;28;20204;-67
2022/03/29 13:41:21;;;;;;;17.40;3.27;;;;;;;;;;5008249;28;20319;-65
2022/03/29 13:43:49;;;;;;;17.27;3.17;;;;;;;;;;5006971;28;20551;-65
2022/03/29 13:46:15;;;;;;;9.63;2.93;;;;;;;;;;5007322;28;20200;-66
2022/03/29 13:48:43;;;;;;;10.10;2.47;;;;;;;;;;5007359;28;20244;-66
2022/03/29 13:51:19;;;;;;;11.93;3.07;;;;;;;;;;5006878;28;20197;-64
2022/03/29 13:53:46;;;;;;;14.00;4.00;;;;;;;;;;5007824;28;20784;-65
2022/03/29 13:56:14;;;;;;;11.43;2.87;;;;;;;;;;5008214;28;20677;-64
2022/03/29 13:58:41;;;;;;;16.47;3.13;;;;;;;;;;5010126;28;20197;-64
2022/03/29 14:01:08;;;;;;;12.00;3.07;;;;;;;;;;5010933;28;20193;-64
2022/03/29 14:03:35;;;;;;;12.03;3.20;;;;;;;;;;5009452;28;20672;-65
2022/03/29 14:06:02;;;;;;;14.93;2.63;;;;;;;;;;5007972;28;20223;-64
2022/03/29 14:08:30;;;;;;;14.00;3.30;;;;;;;;;;5006220;28;20200;-64
2022/03/29 14:10:57;;;;;;;17.17;3.07;;;;;;;;;;5008801;28;20618;-65
2022/03/29 14:13:27;;;;;;;9.33;3.03;;;;;;;;;;5021213;28;20232;-64
2022/03/29 14:15:59;;;;;;;15.27;3.33;;;;;;;;;;5009218;28;20219;-65
2022/03/29 14:18:26;;;;;;;16.50;3.43;;;;;;;;;;5007185;28;20193;-64
2022/03/29 14:20:55;;;;;;;11.57;2.90;;;;;;;;;;5008735;28;20228;-65
2022/03/29 14:23:22;;;;;;;13.77;3.77;;;;;;;;;;5007495;28;20181;-64
2022/03/29 14:25:50;;;;;;;15.57;3.93;;;;;;;;;;5008979;28;20196;-65
2022/03/29 14:28:18;;;;;;;13.90;2.83;;;;;;;;;;5008298;28;20262;-65
2022/03/29 14:30:45;;;;;;;15.00;3.43;;;;;;;;;;5006213;28;20570;-64
2022/03/29 14:33:12;;;;;;;13.57;2.87;;;;;;;;;;4990468;28;20221;-65
2022/03/29 14:35:43;;;;;;;14.00;2.87;;;;;;;;;;5007969;28;20231;-65
2022/03/29 14:38:09;;;;;;;16.83;3.30;;;;;;;;;;5004680;28;20200;-64
2022/03/29 14:40:36;;;;;;;15.53;4.30;;;;;;;;;;5006378;28;20204;-64
2022/03/29 14:43:03;;;;;;;15.43;3.83;;;;;;;;;;5007776;28;20275;-66
2022/03/29 14:45:30;;;;;;;11.53;3.40;;;;;;;;;;5007222;28;20197;-65
2022/03/29 14:47:56;;;;;;;14.07;3.60;;;;;;;;;;5009030;28;20553;-64
2022/03/29 14:50:25;;;;;;;8.87;4.10;;;;;;;;;;5007574;28;20642;-65
2022/03/29 14:52:53;;;;;;;12.33;4.00;;;;;;;;;;5022309;28;20219;-65
2022/03/29 14:55:23;;;;;;;14.33;4.67;;;;;;;;;;5008661;28;20283;-65
2022/03/29 14:57:52;;;;;;;17.10;5.10;;;;;;;;;;5007798;28;20215;-65
2022/03/29 15:00:19;;;;;;;17.47;6.00;;;;;;;;;;5003405;28;20680;-65
2022/03/29 15:02:46;;;;;;;15.23;5.03;;;;;;;;;;5007721;28;20207;-65